Time;durP1;ratioP1;P1;durP2;ratioP2;P2;SDS_P1;SDS_P2;PMS_P1;PMS_P2;Temp;Humidity;BMP_temperature;BMP_pressure;BME280_temperature;BME280_humidity;BME280_pressure;Samples;Min_cycle;Max_cycle;Signal;HPM_P1;HPM_P2
2023/12/11 00:01:47;;;;;;;8.77;3.90;;;7.10;99.90;;;;;;4967442;28;20484;-65
2023/12/11 00:04:15;;;;;;;5.97;3.90;;;7.10;99.90;;;;;;4966810;28;20482;-65
2023/12/11 00:06:43;;;;;;;7.47;4.00;;;7.10;99.90;;;;;;4969581;28;20485;-65
2023/12/11 00:09:13;;;;;;;6.80;4.33;;;7.10;99.90;;;;;;4968497;28;20470;-65
2023/12/11 00:11:41;;;;;;;6.33;4.33;;;7.00;99.90;;;;;;4964546;28;20481;-64
2023/12/11 00:14:09;;;;;;;6.10;3.77;;;7.00;99.90;;;;;;4963482;28;20544;-65
2023/12/11 00:16:37;;;;;;;12.30;4.63;;;7.00;99.90;;;;;;4969512;28;20498;-65
2023/12/11 00:19:05;;;;;;;5.33;3.50;;;7.00;99.90;;;;;;4968160;28;20478;-65
2023/12/11 00:21:33;;;;;;;6.53;4.20;;;7.00;99.90;;;;;;4965720;28;20474;-65
2023/12/11 00:24:01;;;;;;;4.50;3.40;;;7.00;99.90;;;;;;4965612;28;20493;-65
2023/12/11 00:26:31;;;;;;;7.60;4.10;;;7.00;99.90;;;;;;4968117;28;20940;-65
2023/12/11 00:28:59;;;;;;;10.13;4.13;;;7.00;99.90;;;;;;4968218;28;20603;-65
2023/12/11 00:31:27;;;;;;;4.70;3.53;;;7.00;99.90;;;;;;4968479;28;20474;-65
2023/12/11 00:33:55;;;;;;;5.23;2.80;;;7.00;99.90;;;;;;4968156;28;20569;-65
2023/12/11 00:36:23;;;;;;;6.17;3.10;;;7.00;99.90;;;;;;4966718;28;20498;-65
2023/12/11 00:38:51;;;;;;;7.30;3.10;;;6.90;99.90;;;;;;4968966;28;20474;-65
2023/12/11 00:41:19;;;;;;;4.73;2.57;;;6.90;99.90;;;;;;4967252;28;20604;-65
2023/12/11 00:43:49;;;;;;;4.20;2.60;;;6.90;99.90;;;;;;4967754;28;20573;-65
2023/12/11 00:46:21;;;;;;;4.23;2.60;;;6.90;99.90;;;;;;4966897;28;20508;-65
2023/12/11 00:48:49;;;;;;;3.60;2.53;;;6.90;99.90;;;;;;4967170;28;21082;-65
2023/12/11 00:51:19;;;;;;;4.57;2.50;;;6.90;99.90;;;;;;4968135;28;20478;-65
2023/12/11 00:53:48;;;;;;;3.60;2.10;;;6.90;99.90;;;;;;4967098;28;20612;-65
2023/12/11 00:56:16;;;;;;;3.40;2.10;;;6.90;99.90;;;;;;4968688;28;20494;-65
2023/12/11 00:58:45;;;;;;;4.47;2.00;;;6.90;99.90;;;;;;4968297;28;21040;-64
2023/12/11 01:01:14;;;;;;;3.77;1.90;;;6.80;99.90;;;;;;4965863;28;20489;-65
2023/12/11 01:03:42;;;;;;;2.60;2.20;;;6.80;99.90;;;;;;4967567;28;20542;-65
2023/12/11 01:06:10;;;;;;;2.90;1.70;;;6.80;99.90;;;;;;4968036;28;20494;-65
2023/12/11 01:08:39;;;;;;;5.10;1.87;;;6.80;99.90;;;;;;4966999;28;20474;-63
2023/12/11 01:11:08;;;;;;;3.63;2.07;;;6.90;99.90;;;;;;4967608;28;20478;-65
2023/12/11 01:13:36;;;;;;;2.60;1.80;;;6.90;99.90;;;;;;4966488;28;20479;-64
2023/12/11 01:16:05;;;;;;;5.03;1.90;;;6.90;99.90;;;;;;4959368;28;20586;-65
2023/12/11 01:18:35;;;;;;;2.90;2.20;;;6.80;99.90;;;;;;4967201;28;20484;-65
2023/12/11 01:21:04;;;;;;;2.27;2.07;;;6.80;99.90;;;;;;4966180;28;21014;-65
2023/12/11 01:23:32;;;;;;;3.87;2.00;;;6.80;99.90;;;;;;4964624;28;20599;-65
2023/12/11 01:26:00;;;;;;;1.80;1.70;;;6.80;99.90;;;;;;4965420;28;20580;-65
2023/12/11 01:28:28;;;;;;;4.87;2.53;;;6.70;99.90;;;;;;4969091;28;21036;-65
2023/12/11 01:30:56;;;;;;;5.53;2.30;;;6.80;99.90;;;;;;4966911;28;20556;-65
2023/12/11 01:33:24;;;;;;;5.87;3.20;;;6.70;99.90;;;;;;4966652;28;20482;-65
2023/12/11 01:35:54;;;;;;;5.07;2.60;;;6.80;99.90;;;;;;4963327;28;20505;-65
2023/12/11 01:38:22;;;;;;;3.87;2.77;;;6.80;99.90;;;;;;4965524;28;20501;-63
2023/12/11 01:40:50;;;;;;;3.87;2.73;;;6.80;99.90;;;;;;4965881;28;20477;-65
2023/12/11 01:43:19;;;;;;;5.07;3.17;;;6.80;99.90;;;;;;4964360;28;20478;-65
2023/12/11 01:45:57;;;;;;;4.57;2.70;;;6.80;99.90;;;;;;4963534;28;20537;-65
2023/12/11 01:48:25;;;;;;;5.33;3.10;;;6.80;99.90;;;;;;4964676;28;20478;-65
2023/12/11 01:50:55;;;;;;;6.27;3.07;;;6.80;99.90;;;;;;4963499;28;20477;-64
2023/12/11 01:53:24;;;;;;;4.90;3.20;;;6.80;99.90;;;;;;4964526;28;20513;-65
2023/12/11 01:55:52;;;;;;;3.30;2.90;;;6.80;99.90;;;;;;4964870;28;20512;-65
2023/12/11 01:58:20;;;;;;;4.23;2.80;;;6.80;99.90;;;;;;4969197;28;20506;-64
2023/12/11 02:00:49;;;;;;;3.97;3.40;;;6.80;99.90;;;;;;4964884;28;20553;-65
2023/12/11 02:03:17;;;;;;;4.07;3.43;;;6.80;99.90;;;;;;4963228;28;20509;-63
2023/12/11 02:05:45;;;;;;;6.00;3.47;;;6.80;99.90;;;;;;4963524;28;20981;-65
2023/12/11 02:08:16;;;;;;;5.97;3.67;;;6.80;99.90;;;;;;4965626;28;20582;-64
2023/12/11 02:10:45;;;;;;;5.50;3.07;;;6.80;99.90;;;;;;4964831;28;20501;-65
2023/12/11 02:13:13;;;;;;;4.63;3.63;;;6.80;99.90;;;;;;4967183;28;20494;-65
2023/12/11 02:15:42;;;;;;;8.87;4.50;;;6.80;99.90;;;;;;4963704;28;20497;-63
2023/12/11 02:18:12;;;;;;;7.97;4.30;;;6.80;99.90;;;;;;4962224;28;20474;-65
2023/12/11 02:20:41;;;;;;;5.77;4.07;;;6.80;99.90;;;;;;4966657;28;20474;-65
2023/12/11 02:23:14;;;;;;;7.70;4.37;;;6.80;99.90;;;;;;4964535;28;20590;-65
2023/12/11 02:25:46;;;;;;;6.07;4.13;;;6.80;99.90;;;;;;4962015;28;21044;-63
2023/12/11 02:28:16;;;;;;;4.30;3.90;;;6.80;99.90;;;;;;4968389;28;21039;-64
2023/12/11 02:30:51;;;;;;;5.30;4.70;;;6.90;99.90;;;;;;4968273;28;20470;-65
2023/12/11 02:33:19;;;;;;;7.10;4.60;;;6.90;99.90;;;;;;4964409;28;20477;-65
2023/12/11 02:35:47;;;;;;;5.57;5.00;;;7.00;99.90;;;;;;4969412;28;20580;-65
2023/12/11 02:38:15;;;;;;;5.87;5.13;;;7.00;99.90;;;;;;4969442;28;20576;-65
2023/12/11 02:40:43;;;;;;;8.00;4.87;;;7.00;99.90;;;;;;4969641;28;20473;-65
2023/12/11 02:43:12;;;;;;;6.77;4.77;;;7.10;99.90;;;;;;4964764;28;20474;-66
2023/12/11 02:45:42;;;;;;;9.17;5.40;;;7.10;99.90;;;;;;4962777;28;20508;-65
2023/12/11 02:48:11;;;;;;;9.23;5.80;;;7.10;99.90;;;;;;4968798;28;20827;-66
2023/12/11 02:50:40;;;;;;;6.60;5.27;;;7.20;99.90;;;;;;4963863;28;20510;-65
2023/12/11 02:53:08;;;;;;;9.10;5.80;;;7.20;99.90;;;;;;4967464;28;20481;-66
2023/12/11 02:55:36;;;;;;;9.10;6.27;;;7.20;99.90;;;;;;4969365;28;20525;-65
2023/12/11 02:58:05;;;;;;;6.10;4.93;;;7.30;99.90;;;;;;4967824;28;20529;-65
2023/12/11 03:00:33;;;;;;;6.90;5.23;;;7.30;99.90;;;;;;4967942;28;20561;-66
2023/12/11 03:03:03;;;;;;;9.47;5.60;;;7.30;99.90;;;;;;4967361;28;20458;-65
2023/12/11 03:05:31;;;;;;;7.70;5.43;;;7.40;99.90;;;;;;4968836;28;20516;-66
2023/12/11 03:07:59;;;;;;;8.10;6.63;;;7.40;99.90;;;;;;4969666;28;20478;-65
2023/12/11 03:10:27;;;;;;;7.50;6.20;;;7.40;99.90;;;;;;4964400;28;20566;-65
2023/12/11 03:12:55;;;;;;;8.27;6.00;;;7.50;99.90;;;;;;4968543;28;21045;-66
2023/12/11 03:15:23;;;;;;;10.50;5.90;;;7.50;99.90;;;;;;4966384;28;20517;-66
2023/12/11 03:17:51;;;;;;;9.73;5.73;;;7.50;99.90;;;;;;4968380;28;20528;-65
2023/12/11 03:20:21;;;;;;;9.23;6.20;;;7.50;99.90;;;;;;4966569;28;20528;-66
2023/12/11 03:22:49;;;;;;;9.27;7.97;;;7.60;99.90;;;;;;4965749;28;21009;-66
2023/12/11 03:25:17;;;;;;;9.40;6.50;;;7.60;99.90;;;;;;4967100;28;20522;-64
2023/12/11 03:27:45;;;;;;;9.47;5.73;;;7.60;99.90;;;;;;4969181;28;20570;-66
2023/12/11 03:30:13;;;;;;;9.60;5.97;;;7.60;99.90;;;;;;4968185;28;20581;-65
2023/12/11 03:32:41;;;;;;;11.00;5.60;;;7.60;99.90;;;;;;4967503;28;20602;-65
2023/12/11 03:35:10;;;;;;;7.77;5.50;;;7.60;99.90;;;;;;4966258;28;20504;-66
2023/12/11 03:37:39;;;;;;;12.23;5.87;;;7.70;99.90;;;;;;4968513;28;20559;-66
2023/12/11 03:40:08;;;;;;;11.03;5.90;;;7.70;99.90;;;;;;4964844;28;20545;-65
2023/12/11 03:42:37;;;;;;;10.30;6.70;;;7.70;99.90;;;;;;4966650;28;20481;-64
2023/12/11 03:45:06;;;;;;;9.97;5.13;;;7.70;99.90;;;;;;4967019;28;20482;-65
2023/12/11 03:47:34;;;;;;;10.13;5.20;;;7.80;99.90;;;;;;4971101;28;20561;-66
2023/12/11 03:50:02;;;;;;;9.40;5.63;;;7.80;99.90;;;;;;4967458;28;20963;-66
2023/12/11 03:52:30;;;;;;;9.83;5.40;;;7.80;99.90;;;;;;4965425;28;20502;-66
2023/12/11 03:55:00;;;;;;;11.10;5.30;;;7.80;99.90;;;;;;4964376;28;20557;-66
2023/12/11 03:57:28;;;;;;;10.20;5.03;;;7.80;99.90;;;;;;4970338;28;20536;-66
2023/12/11 03:59:56;;;;;;;9.00;4.67;;;7.80;99.90;;;;;;4967091;28;20525;-64
2023/12/11 04:02:24;;;;;;;16.30;4.90;;;7.80;99.90;;;;;;4968943;28;20513;-66
2023/12/11 04:04:53;;;;;;;9.77;4.80;;;7.80;99.90;;;;;;4967003;28;20910;-63
2023/12/11 04:07:21;;;;;;;8.60;4.53;;;7.80;99.90;;;;;;4966465;28;20466;-63
2023/12/11 04:09:49;;;;;;;9.60;4.17;;;7.80;99.90;;;;;;4965012;28;20505;-64
2023/12/11 04:12:18;;;;;;;12.10;3.97;;;7.80;99.90;;;;;;4966998;28;20859;-65
2023/12/11 04:14:46;;;;;;;7.30;3.83;;;7.80;99.90;;;;;;4966543;28;21066;-65
2023/12/11 04:17:14;;;;;;;4.07;3.47;;;7.80;99.90;;;;;;4966496;28;20662;-65
2023/12/11 04:19:42;;;;;;;15.83;4.00;;;7.90;99.90;;;;;;4964222;28;20549;-63
2023/12/11 04:22:11;;;;;;;12.27;3.70;;;7.90;99.90;;;;;;4965251;28;20481;-65
2023/12/11 04:24:39;;;;;;;13.77;4.20;;;7.90;99.90;;;;;;4961802;28;20493;-65
2023/12/11 04:27:07;;;;;;;12.20;4.77;;;7.90;99.90;;;;;;4967473;28;20473;-65
2023/12/11 04:29:36;;;;;;;14.73;3.77;;;8.00;99.90;;;;;;4965815;28;21010;-65
2023/12/11 04:32:06;;;;;;;11.40;4.23;;;8.00;99.90;;;;;;4963550;28;20481;-64
2023/12/11 04:34:34;;;;;;;10.43;3.90;;;8.00;99.90;;;;;;4963082;28;20588;-65
2023/12/11 04:37:02;;;;;;;9.77;3.70;;;8.00;99.90;;;;;;4963218;28;20480;-65
2023/12/11 04:39:30;;;;;;;16.33;5.07;;;8.00;99.90;;;;;;4964713;28;20920;-65
2023/12/11 04:41:58;;;;;;;12.77;3.27;;;8.10;99.90;;;;;;4964193;28;20505;-64
2023/12/11 04:44:26;;;;;;;14.23;4.70;;;8.10;99.90;;;;;;4964528;28;20560;-65
2023/12/11 04:46:55;;;;;;;15.40;4.80;;;8.10;99.90;;;;;;4964924;28;20513;-65
2023/12/11 04:49:23;;;;;;;12.40;4.63;;;8.10;99.90;;;;;;4963299;28;20648;-65
2023/12/11 04:51:52;;;;;;;12.20;3.57;;;8.20;99.90;;;;;;4967137;28;20909;-65
2023/12/11 04:54:20;;;;;;;12.87;4.40;;;8.20;99.90;;;;;;4966829;28;20584;-64
2023/12/11 04:56:48;;;;;;;10.47;3.70;;;8.20;99.90;;;;;;4966290;28;20478;-65
2023/12/11 04:59:16;;;;;;;13.20;5.90;;;8.20;99.90;;;;;;4963590;28;20501;-65
2023/12/11 05:01:44;;;;;;;12.53;5.57;;;8.20;99.90;;;;;;4966613;28;20533;-64
2023/12/11 05:04:14;;;;;;;10.50;4.47;;;8.20;99.90;;;;;;4966728;28;20486;-65
2023/12/11 05:06:41;;;;;;;18.63;5.30;;;8.20;99.90;;;;;;4966432;28;20560;-65
2023/12/11 05:09:09;;;;;;;13.43;4.63;;;8.30;99.90;;;;;;4965206;28;20476;-65
2023/12/11 05:11:37;;;;;;;11.23;4.87;;;8.30;99.90;;;;;;4967557;28;20480;-65
2023/12/11 05:14:05;;;;;;;11.87;4.27;;;8.30;99.90;;;;;;4963350;28;20561;-65
2023/12/11 05:16:33;;;;;;;11.80;4.97;;;8.30;99.90;;;;;;4964260;28;21021;-65
2023/12/11 05:19:05;;;;;;;12.60;4.60;;;8.30;99.90;;;;;;4967090;28;20556;-65
2023/12/11 05:21:35;;;;;;;11.93;4.17;;;8.30;99.90;;;;;;4965945;28;20556;-65
2023/12/11 05:24:03;;;;;;;19.03;5.80;;;8.30;99.90;;;;;;4965773;28;20494;-63
2023/12/11 05:26:31;;;;;;;19.30;6.50;;;8.30;99.90;;;;;;4966480;28;20557;-65
2023/12/11 05:29:00;;;;;;;15.63;4.70;;;8.30;99.90;;;;;;4962068;28;20899;-65
2023/12/11 05:31:28;;;;;;;19.20;5.67;;;8.30;99.90;;;;;;4964083;28;21487;-65
2023/12/11 05:33:56;;;;;;;17.60;5.70;;;8.30;99.90;;;;;;4966318;28;20482;-64
2023/12/11 05:36:24;;;;;;;21.13;6.00;;;8.30;99.90;;;;;;4965873;28;20499;-65
2023/12/11 05:38:54;;;;;;;17.03;5.10;;;8.30;99.90;;;;;;4967316;28;20532;-65
2023/12/11 05:41:22;;;;;;;16.00;5.50;;;8.30;99.90;;;;;;4967368;28;20856;-64
2023/12/11 05:43:50;;;;;;;11.67;5.27;;;8.30;99.90;;;;;;4962442;28;20474;-64
2023/12/11 05:46:18;;;;;;;13.07;5.03;;;8.30;99.90;;;;;;4957878;28;20581;-64
2023/12/11 05:48:46;;;;;;;13.30;5.50;;;8.40;99.90;;;;;;4959873;28;20900;-65
2023/12/11 05:51:15;;;;;;;25.67;9.40;;;8.40;99.90;;;;;;4967206;28;20537;-65
2023/12/11 05:53:43;;;;;;;15.33;5.10;;;8.40;99.90;;;;;;4967609;28;20497;-64
2023/12/11 05:56:13;;;;;;;16.43;5.03;;;8.40;99.90;;;;;;4962858;28;20510;-64
2023/12/11 05:58:41;;;;;;;17.00;5.33;;;8.40;99.90;;;;;;4966206;28;20880;-64
2023/12/11 06:01:09;;;;;;;20.77;5.00;;;8.40;99.90;;;;;;4970180;28;20474;-64
2023/12/11 06:03:37;;;;;;;11.83;4.97;;;8.40;99.90;;;;;;4965548;28;20492;-62
2023/12/11 06:06:14;;;;;;;13.20;5.87;;;8.40;99.90;;;;;;4967143;28;20494;-64
2023/12/11 06:08:42;;;;;;;10.13;5.20;;;8.40;99.90;;;;;;4969892;28;20556;-64
2023/12/11 06:11:10;;;;;;;14.23;6.10;;;8.40;99.90;;;;;;4970307;28;20501;-66
2023/12/11 06:13:39;;;;;;;16.63;5.13;;;8.40;99.90;;;;;;4966608;28;20804;-64
2023/12/11 06:16:09;;;;;;;14.43;5.90;;;8.30;99.90;;;;;;4964827;28;20489;-64
2023/12/11 06:18:37;;;;;;;20.10;6.20;;;8.30;99.90;;;;;;4968254;28;20497;-64
2023/12/11 06:21:05;;;;;;;14.97;6.57;;;8.30;99.90;;;;;;4956541;28;20987;-64
2023/12/11 06:23:33;;;;;;;16.73;5.37;;;8.30;99.90;;;;;;4968611;28;20481;-64
2023/12/11 06:26:01;;;;;;;12.53;5.17;;;8.40;99.90;;;;;;4967287;28;20534;-64
2023/12/11 06:28:29;;;;;;;18.20;5.80;;;8.40;99.90;;;;;;4968172;28;20470;-63
2023/12/11 06:30:59;;;;;;;14.53;5.83;;;8.40;99.90;;;;;;4968598;28;20505;-64
2023/12/11 06:33:27;;;;;;;14.93;6.10;;;8.40;99.90;;;;;;4967677;28;20577;-64
2023/12/11 06:35:55;;;;;;;14.30;6.20;;;8.40;99.90;;;;;;4960707;28;20556;-64
2023/12/11 06:38:23;;;;;;;17.07;6.00;;;8.40;99.90;;;;;;4970064;28;20498;-64
2023/12/11 06:40:52;;;;;;;19.10;7.27;;;8.40;99.90;;;;;;4965169;28;20477;-64
2023/12/11 06:43:20;;;;;;;23.07;6.33;;;8.40;99.90;;;;;;4966982;28;20489;-64
2023/12/11 06:45:48;;;;;;;15.20;5.70;;;8.40;99.90;;;;;;4970184;28;20509;-64
2023/12/11 06:48:18;;;;;;;16.17;7.87;;;8.40;99.90;;;;;;4968827;28;20485;-64
2023/12/11 06:50:46;;;;;;;17.57;5.93;;;8.40;99.90;;;;;;4961772;28;20470;-63
2023/12/11 06:53:14;;;;;;;18.13;6.67;;;8.40;99.90;;;;;;4963107;28;20548;-64
2023/12/11 06:55:42;;;;;;;23.57;6.73;;;8.40;99.90;;;;;;4968792;28;20509;-64
2023/12/11 06:58:10;;;;;;;12.80;6.40;;;8.40;99.90;;;;;;4970054;28;20577;-64
2023/12/11 07:00:38;;;;;;;14.27;7.13;;;8.40;99.90;;;;;;4966206;28;20556;-64
2023/12/11 07:03:06;;;;;;;14.27;7.37;;;8.40;99.90;;;;;;4968595;28;20588;-64
2023/12/11 07:05:36;;;;;;;15.67;6.90;;;8.40;99.90;;;;;;4968457;28;20486;-64
2023/12/11 07:08:05;;;;;;;15.07;6.23;;;8.40;99.90;;;;;;4966332;28;20502;-64
2023/12/11 07:10:33;;;;;;;16.73;6.00;;;8.40;99.90;;;;;;4970149;28;20598;-64
2023/12/11 07:13:05;;;;;;;18.80;6.70;;;8.40;99.90;;;;;;4968231;28;20485;-63
2023/12/11 07:15:33;;;;;;;16.97;7.40;;;8.40;99.90;;;;;;4968378;28;24182;-64
2023/12/11 07:18:01;;;;;;;15.70;6.27;;;8.40;99.90;;;;;;4968091;28;21005;-63
2023/12/11 07:20:33;;;;;;;16.20;6.97;;;8.40;99.90;;;;;;4970758;28;20481;-64
2023/12/11 07:23:02;;;;;;;15.87;6.23;;;8.40;99.90;;;;;;4966263;28;20485;-61
2023/12/11 07:25:30;;;;;;;22.17;7.83;;;8.40;99.90;;;;;;4968909;28;20498;-64
2023/12/11 07:27:58;;;;;;;15.23;6.40;;;8.50;99.90;;;;;;4969268;28;20470;-64
2023/12/11 07:30:27;;;;;;;15.40;6.20;;;8.40;99.90;;;;;;4967273;28;20469;-62
2023/12/11 07:32:55;;;;;;;15.23;7.13;;;8.50;99.90;;;;;;4968297;28;20493;-62
2023/12/11 07:35:24;;;;;;;17.47;6.00;;;8.50;99.90;;;;;;4967962;28;20512;-62
2023/12/11 07:37:52;;;;;;;10.60;5.20;;;8.50;99.90;;;;;;4967868;28;20501;-62
2023/12/11 07:40:22;;;;;;;14.70;6.00;;;8.50;99.90;;;;;;4965192;28;20498;-62
2023/12/11 07:42:50;;;;;;;11.27;4.97;;;8.50;99.90;;;;;;4967745;28;20927;-62
2023/12/11 07:45:19;;;;;;;17.70;6.27;;;8.50;99.90;;;;;;4965602;28;20517;-63
2023/12/11 07:47:47;;;;;;;10.70;5.50;;;8.50;99.90;;;;;;4967937;28;20482;-62
2023/12/11 07:50:15;;;;;;;14.40;5.50;;;8.50;99.90;;;;;;4968819;28;20526;-62
2023/12/11 07:52:43;;;;;;;15.40;5.00;;;8.50;99.90;;;;;;4969252;28;20494;-63
2023/12/11 07:55:11;;;;;;;16.77;6.70;;;8.50;99.90;;;;;;4968064;28;20909;-63
2023/12/11 07:57:43;;;;;;;13.47;4.90;;;8.50;99.90;;;;;;4966667;28;20481;-61
2023/12/11 08:00:12;;;;;;;15.73;5.03;;;8.50;99.90;;;;;;4967460;28;20498;-63
2023/12/11 08:02:40;;;;;;;18.17;5.27;;;8.50;99.90;;;;;;4968874;28;20505;-63
2023/12/11 08:05:09;;;;;;;15.30;5.30;;;8.50;99.90;;;;;;4967465;28;20482;-62
2023/12/11 08:07:38;;;;;;;11.73;5.17;;;8.50;99.90;;;;;;4967796;28;20492;-62
2023/12/11 08:10:07;;;;;;;12.30;5.80;;;8.50;99.90;;;;;;4968011;28;20493;-62
2023/12/11 08:12:36;;;;;;;9.10;5.30;;;8.50;99.90;;;;;;4966372;28;20469;-62
2023/12/11 08:15:06;;;;;;;11.43;5.50;;;8.60;99.90;;;;;;4967359;28;20494;-62
2023/12/11 08:17:34;;;;;;;10.80;4.93;;;8.60;99.90;;;;;;4966259;28;20483;-62
2023/12/11 08:20:03;;;;;;;9.87;5.00;;;8.60;99.90;;;;;;4966603;28;20512;-62
2023/12/11 08:22:37;;;;;;;20.10;5.37;;;8.60;99.90;;;;;;4967014;28;20481;-63
2023/12/11 08:25:06;;;;;;;10.83;4.83;;;8.60;99.90;;;;;;4966310;28;20537;-63
2023/12/11 08:27:34;;;;;;;12.97;5.33;;;8.60;99.90;;;;;;4967921;28;20485;-63
2023/12/11 08:30:03;;;;;;;11.00;5.63;;;8.70;99.90;;;;;;4968103;28;20562;-63
2023/12/11 08:32:32;;;;;;;12.60;5.30;;;8.70;99.90;;;;;;4967694;28;20557;-63
2023/12/11 08:35:03;;;;;;;11.47;4.80;;;8.70;99.90;;;;;;4965494;28;20863;-63
2023/12/11 08:37:32;;;;;;;11.23;5.60;;;8.70;99.90;;;;;;4966616;28;21065;-63
2023/12/11 08:40:01;;;;;;;8.37;5.30;;;8.70;99.90;;;;;;4966074;28;20498;-63
2023/12/11 08:42:29;;;;;;;12.23;5.60;;;8.70;99.90;;;;;;4967123;28;20498;-63
2023/12/11 08:44:58;;;;;;;13.20;5.83;;;8.70;99.90;;;;;;4966340;28;20551;-63
2023/12/11 08:47:26;;;;;;;11.63;5.20;;;8.70;99.90;;;;;;4969150;28;20561;-63
2023/12/11 08:49:55;;;;;;;15.70;5.63;;;8.70;99.90;;;;;;4966549;28;20470;-62
2023/12/11 08:52:23;;;;;;;16.27;5.57;;;8.70;99.90;;;;;;4966697;28;20561;-62
2023/12/11 08:54:51;;;;;;;18.20;6.83;;;8.70;99.90;;;;;;4965213;28;20665;-62
2023/12/11 08:57:20;;;;;;;13.57;5.47;;;8.70;99.90;;;;;;4964231;28;20481;-63
2023/12/11 08:59:48;;;;;;;13.73;6.20;;;8.70;99.90;;;;;;4966776;28;20584;-62
2023/12/11 09:02:16;;;;;;;12.67;5.70;;;8.80;99.90;;;;;;4966367;28;20575;-62
2023/12/11 09:04:44;;;;;;;14.37;5.90;;;8.80;99.90;;;;;;4967640;28;20585;-63
2023/12/11 09:07:13;;;;;;;15.93;5.77;;;8.80;99.90;;;;;;4967366;28;20531;-63
2023/12/11 09:09:42;;;;;;;12.23;5.13;;;8.80;99.90;;;;;;4964565;28;20474;-63
2023/12/11 09:12:10;;;;;;;12.97;5.63;;;8.80;99.90;;;;;;4966715;28;20479;-63
2023/12/11 09:14:57;;;;;;;14.37;6.50;;;8.80;99.90;;;;;;4967058;28;20482;-63
2023/12/11 09:17:25;;;;;;;14.80;6.10;;;8.80;99.90;;;;;;4967580;28;20481;-63
2023/12/11 09:19:53;;;;;;;13.67;6.10;;;8.80;99.90;;;;;;4968478;28;20489;-63
2023/12/11 09:22:25;;;;;;;11.77;5.87;;;8.80;99.90;;;;;;4967400;28;20485;-63
2023/12/11 09:24:53;;;;;;;9.93;4.67;;;8.80;99.90;;;;;;4965103;28;20552;-64
2023/12/11 09:27:22;;;;;;;9.30;4.43;;;8.80;99.90;;;;;;4966364;28;20474;-62
2023/12/11 09:29:50;;;;;;;10.90;4.20;;;8.80;99.90;;;;;;4965280;28;20497;-62
2023/12/11 09:32:18;;;;;;;9.97;4.10;;;8.80;99.90;;;;;;4964009;28;20609;-62
2023/12/11 09:34:47;;;;;;;8.43;4.17;;;8.80;99.90;;;;;;4962707;28;20653;-63
2023/12/11 09:37:18;;;;;;;9.23;4.53;;;8.80;99.90;;;;;;4967705;28;20505;-62
2023/12/11 09:39:49;;;;;;;6.90;3.97;;;8.80;99.90;;;;;;4965824;28;20543;-65
2023/12/11 09:42:19;;;;;;;11.17;4.40;;;8.80;99.90;;;;;;4967156;28;20854;-64
2023/12/11 09:44:49;;;;;;;7.53;4.03;;;8.80;99.90;;;;;;4964214;28;20485;-65
2023/12/11 09:47:24;;;;;;;9.00;4.63;;;8.80;99.90;;;;;;4965900;28;20477;-63
2023/12/11 09:49:53;;;;;;;9.73;4.00;;;8.80;99.90;;;;;;4966509;28;20524;-64
2023/12/11 09:52:22;;;;;;;9.53;4.60;;;8.80;99.90;;;;;;4967757;28;20971;-64
2023/12/11 09:54:51;;;;;;;10.33;5.70;;;8.80;99.90;;;;;;4966154;28;20657;-64
2023/12/11 09:57:20;;;;;;;11.07;5.10;;;8.80;99.90;;;;;;4966702;28;20486;-64
2023/12/11 09:59:50;;;;;;;14.50;5.57;;;8.90;99.90;;;;;;4966032;28;20544;-63
2023/12/11 10:02:18;;;;;;;15.33;6.10;;;8.90;99.90;;;;;;4963868;28;20498;-64
2023/12/11 10:05:05;;;;;;;13.17;5.87;;;8.90;99.90;;;;;;4962930;28;20501;-64
2023/12/11 10:07:33;;;;;;;13.70;6.17;;;8.90;99.90;;;;;;4964060;28;20532;-65
2023/12/11 10:10:20;;;;;;;14.90;5.90;;;8.90;99.90;;;;;;4965207;28;20486;-65
2023/12/11 10:12:49;;;;;;;14.27;5.43;;;9.00;99.90;;;;;;4965995;28;21020;-65
2023/12/11 10:15:21;;;;;;;13.60;6.00;;;9.00;99.90;;;;;;4963420;28;20545;-64
2023/12/11 10:18:02;;;;;;;10.17;5.40;;;9.00;99.90;;;;;;4966562;28;20496;-65
2023/12/11 10:20:30;;;;;;;23.87;6.80;;;9.00;99.90;;;;;;4964499;28;21022;-63
2023/12/11 10:22:59;;;;;;;14.10;6.63;;;9.00;99.90;;;;;;4967034;28;20520;-65
2023/12/11 10:25:33;;;;;;;15.60;6.43;;;9.10;99.90;;;;;;4966271;28;20478;-64
2023/12/11 10:28:06;;;;;;;14.90;5.80;;;9.10;99.90;;;;;;4966342;28;20516;-65
2023/12/11 10:30:36;;;;;;;10.83;5.50;;;9.20;99.90;;;;;;4966293;28;20470;-65
2023/12/11 10:33:04;;;;;;;11.57;5.20;;;9.20;99.90;;;;;;4965694;28;20477;-65
2023/12/11 10:35:33;;;;;;;16.53;5.80;;;9.30;99.90;;;;;;4966071;28;20497;-65
2023/12/11 10:38:02;;;;;;;12.53;4.90;;;9.30;99.90;;;;;;4966388;28;20977;-64
2023/12/11 10:40:42;;;;;;;13.97;4.90;;;9.30;99.90;;;;;;4965497;28;20505;-65
2023/12/11 10:43:10;;;;;;;11.53;5.03;;;9.30;99.90;;;;;;4964651;28;20478;-65
2023/12/11 10:45:38;;;;;;;15.97;5.70;;;9.30;99.90;;;;;;4966019;28;20490;-63
2023/12/11 10:48:07;;;;;;;12.63;5.13;;;9.40;99.90;;;;;;4968084;28;20488;-65
2023/12/11 10:50:35;;;;;;;11.17;4.73;;;9.40;99.90;;;;;;4969712;28;20473;-64
2023/12/11 10:53:04;;;;;;;11.83;4.27;;;9.40;99.90;;;;;;4969324;28;20976;-64
2023/12/11 10:55:33;;;;;;;9.93;4.13;;;9.40;99.90;;;;;;4969286;28;20994;-64
2023/12/11 10:58:04;;;;;;;9.83;4.13;;;9.40;99.90;;;;;;4969038;28;20482;-65
2023/12/11 11:00:32;;;;;;;12.30;3.80;;;9.40;99.90;;;;;;4968862;28;20469;-65
2023/12/11 11:03:02;;;;;;;10.87;4.20;;;9.50;99.90;;;;;;4970286;28;20569;-64
2023/12/11 11:05:31;;;;;;;12.00;5.03;;;9.50;99.90;;;;;;4969968;28;20484;-64
2023/12/11 11:08:11;;;;;;;11.77;4.13;;;9.50;99.90;;;;;;4970184;28;20470;-65
2023/12/11 11:10:45;;;;;;;10.40;4.43;;;9.50;99.90;;;;;;4970142;28;20473;-65
2023/12/11 11:13:21;;;;;;;13.07;3.83;;;9.50;99.90;;;;;;4969576;28;20473;-64
2023/12/11 11:15:53;;;;;;;10.30;4.30;;;9.40;99.90;;;;;;4968471;28;20499;-65
2023/12/11 11:18:21;;;;;;;11.17;4.23;;;9.40;99.90;;;;;;4970110;28;20473;-63
2023/12/11 11:21:10;;;;;;;6.33;3.90;;;9.50;99.90;;;;;;4965331;28;20482;-64
2023/12/11 11:23:43;;;;;;;11.53;3.63;;;9.50;99.90;;;;;;4969315;28;20780;-63
2023/12/11 11:26:34;;;;;;;8.47;4.80;;;9.50;99.90;;;;;;4965718;28;21014;-65
2023/12/11 11:29:04;;;;;;;11.17;3.67;;;9.60;99.90;;;;;;4968604;28;20470;-65
2023/12/11 11:31:50;;;;;;;9.33;3.90;;;9.60;99.90;;;;;;4969964;28;20504;-65
2023/12/11 11:34:54;;;;;;;7.90;3.70;;;9.60;99.90;;;;;;4969100;28;20485;-65
2023/12/11 11:37:49;;;;;;;8.90;3.60;;;9.60;99.90;;;;;;4967628;28;20544;-65
2023/12/11 11:40:33;;;;;;;8.43;3.80;;;9.70;99.90;;;;;;4967601;28;20553;-65
2023/12/11 11:43:03;;;;;;;9.23;3.60;;;9.70;99.90;;;;;;4969728;28;20504;-65
2023/12/11 11:45:32;;;;;;;8.03;3.63;;;9.70;99.90;;;;;;4965535;28;20482;-64
2023/12/11 11:48:00;;;;;;;10.30;4.70;;;9.70;99.90;;;;;;4969971;28;20525;-65
2023/12/11 11:50:29;;;;;;;7.90;3.50;;;9.80;99.90;;;;;;4968359;28;20561;-64
2023/12/11 11:53:01;;;;;;;6.83;3.83;;;9.80;99.90;;;;;;4969520;28;20505;-64
2023/12/11 11:55:29;;;;;;;11.83;4.20;;;9.90;99.90;;;;;;4969012;28;20930;-64
2023/12/11 11:57:58;;;;;;;8.73;4.33;;;10.00;99.90;;;;;;4968522;28;20469;-65
2023/12/11 12:00:27;;;;;;;5.43;3.87;;;10.00;99.90;;;;;;4969569;28;20610;-65
2023/12/11 12:03:04;;;;;;;7.53;4.30;;;10.00;99.90;;;;;;4967291;28;20504;-65
2023/12/11 12:05:32;;;;;;;10.00;3.83;;;10.00;99.90;;;;;;4966900;28;20474;-65
2023/12/11 12:08:00;;;;;;;7.80;4.00;;;10.00;99.90;;;;;;4968592;28;20513;-63
2023/12/11 12:10:28;;;;;;;6.33;4.27;;;10.10;99.90;;;;;;4968390;28;20867;-64
2023/12/11 12:12:57;;;;;;;10.23;3.87;;;10.10;99.90;;;;;;4968276;28;20829;-65
2023/12/11 12:15:26;;;;;;;6.20;3.90;;;10.10;99.90;;;;;;4965437;28;20498;-65
2023/12/11 12:17:54;;;;;;;6.80;3.77;;;10.10;99.90;;;;;;4968509;28;20528;-63
2023/12/11 12:20:24;;;;;;;7.90;3.63;;;10.10;99.90;;;;;;4966994;28;20486;-64
2023/12/11 12:22:57;;;;;;;8.57;4.10;;;10.10;99.90;;;;;;4963312;28;21135;-64
2023/12/11 12:25:26;;;;;;;7.67;3.50;;;10.10;99.90;;;;;;4964060;28;20514;-64
2023/12/11 12:27:56;;;;;;;7.60;3.50;;;10.10;99.90;;;;;;4966330;28;20701;-64
2023/12/11 12:30:25;;;;;;;10.13;3.70;;;10.10;99.90;;;;;;4963255;28;20482;-64
2023/12/11 12:32:53;;;;;;;7.23;3.87;;;10.00;99.90;;;;;;4951620;28;20474;-64
2023/12/11 12:35:22;;;;;;;5.77;3.27;;;10.00;99.90;;;;;;4967727;28;20531;-64
2023/12/11 12:37:52;;;;;;;5.67;3.33;;;10.00;99.90;;;;;;4962884;28;20510;-63
2023/12/11 12:40:20;;;;;;;5.23;3.00;;;9.90;99.90;;;;;;4960676;28;20610;-63
2023/12/11 12:42:48;;;;;;;6.93;3.30;;;9.90;99.90;;;;;;4963072;28;20524;-64
2023/12/11 12:45:26;;;;;;;9.10;4.63;;;9.80;99.90;;;;;;4965351;28;20548;-64
2023/12/11 12:48:04;;;;;;;6.90;3.23;;;9.80;99.90;;;;;;4967795;28;20509;-64
2023/12/11 12:50:33;;;;;;;7.70;4.00;;;9.80;99.90;;;;;;4961971;28;21057;-64
2023/12/11 12:53:07;;;;;;;7.20;3.83;;;9.70;99.90;;;;;;4965565;28;21071;-63
2023/12/11 12:55:36;;;;;;;7.00;4.00;;;9.70;99.90;;;;;;4969411;28;20940;-64
2023/12/11 12:58:04;;;;;;;6.40;3.87;;;9.70;99.90;;;;;;4967760;28;20561;-64
2023/12/11 13:00:34;;;;;;;7.60;3.57;;;9.70;99.90;;;;;;4962334;28;20505;-63
2023/12/11 13:03:07;;;;;;;6.10;4.27;;;9.60;99.90;;;;;;4965607;28;21081;-64